Lowest pressure

Not for real navigation. The accuracy of this data is not assured See disclaimer for more information



ICAO NAME COUNTRY WIND Kt GUST Kt VIS m TEMP/DEW C BARO METAR
NZCM Williams Field Antarctica 0 0 9999 -30/-34 29.05 NZCM 161155Z 00000KT 9999 CAVOK M30/M34 A2905 RMK AO2A SLP846 T12991340
SCRM 30 0 1200 0/0 29.06 SCRM 161200Z 29030KT 1200 SN OVC002 M00/M00 Q0984 NOSIG
RJCK Kushiro Airport Japan 9 0 8000 11/11 29.12 RJCK 161146Z 02009KT 8000 -SHRA FEW003 SCT008 BKN030 11/11 Q0986 RMK 1ST003 3ST008 6CU030 A2913
RJCB Obihiro Airport Japan 7 0 6000 11/10 29.18 RJCB 161100Z 01007KT 340V040 6000 -SHRA FEW004 SCT006 BKN025 11/10 Q0988
RJCC Chitose Ab Japan 22 33 9999 13/8 29.21 RJCC 161200Z 35022G33KT 9999 FEW030 SCT060 BKN130 13/08 Q0989 RMK 1CU030 3CU060 7AC130 A2923

Show more